createdAt,value
2023-04-23T00:01:36.008Z,8.95
2023-04-23T00:04:06.764Z,8.63
2023-04-23T00:06:35.179Z,10.23
2023-04-23T00:09:04.535Z,9.90
2023-04-23T00:11:34.165Z,10.43
2023-04-23T00:14:02.812Z,10.30
2023-04-23T00:16:30.936Z,9.87
2023-04-23T00:18:58.805Z,9.88
2023-04-23T00:21:28.204Z,9.77
2023-04-23T00:23:56.442Z,9.15
2023-04-23T00:26:24.849Z,9.65
2023-04-23T00:28:58.067Z,10.60
2023-04-23T00:31:27.708Z,9.40
2023-04-23T00:33:57.125Z,8.52
2023-04-23T00:36:25.078Z,8.98
2023-04-23T00:38:52.406Z,8.98
2023-04-23T00:41:19.721Z,8.63
2023-04-23T00:43:47.180Z,8.40
2023-04-23T00:46:14.415Z,8.70
2023-04-23T00:48:42.562Z,7.80
2023-04-23T00:51:11.630Z,7.75
2023-04-23T00:53:38.771Z,7.50
2023-04-23T00:56:06.232Z,7.80
2023-04-23T00:58:34.531Z,7.90
2023-04-23T01:01:04.683Z,8.25
2023-04-23T01:03:32.530Z,8.82
2023-04-23T01:05:59.963Z,9.13
2023-04-23T01:08:27.069Z,9.13
2023-04-23T01:10:54.871Z,8.80
2023-04-23T01:13:29.843Z,9.15
2023-04-23T01:15:57.327Z,9.35
2023-04-23T01:18:24.766Z,9.60
2023-04-23T01:20:52.042Z,9.27
2023-04-23T01:23:19.443Z,9.85
2023-04-23T01:25:47.809Z,9.70
2023-04-23T01:28:14.831Z,10.15
2023-04-23T01:30:43.537Z,10.80
2023-04-23T01:33:11.528Z,10.73
2023-04-23T01:35:39.335Z,10.70
2023-04-23T01:38:09.679Z,11.15
2023-04-23T01:40:37.274Z,10.73
2023-04-23T01:43:04.822Z,9.53
2023-04-23T01:45:32.123Z,10.38
2023-04-23T01:48:00.398Z,9.95
2023-04-23T01:50:29.312Z,10.95
2023-04-23T01:52:56.583Z,11.05
2023-04-23T01:55:23.983Z,9.93
2023-04-23T01:57:51.851Z,10.77
2023-04-23T02:00:19.339Z,11.15
2023-04-23T02:02:47.417Z,9.45
2023-04-23T02:05:19.019Z,11.10
2023-04-23T02:07:50.861Z,9.67
2023-04-23T02:10:20.105Z,10.80
2023-04-23T02:12:48.666Z,11.43
2023-04-23T02:15:17.203Z,10.93
2023-04-23T02:17:45.077Z,10.82
2023-04-23T02:20:13.763Z,10.83
2023-04-23T02:22:43.711Z,9.65
2023-04-23T02:25:11.645Z,9.57
2023-04-23T02:27:39.649Z,9.88
2023-04-23T02:30:09.517Z,9.88
2023-04-23T02:32:41.603Z,9.33
2023-04-23T02:35:11.041Z,9.40
2023-04-23T02:37:38.934Z,9.32
2023-04-23T02:40:06.953Z,9.35
2023-04-23T02:42:34.216Z,9.80
2023-04-23T02:45:01.255Z,9.43
2023-04-23T02:47:28.362Z,9.65
2023-04-23T02:49:55.622Z,8.52
2023-04-23T02:52:22.661Z,9.30
2023-04-23T02:54:49.705Z,8.85
2023-04-23T02:57:16.811Z,9.50
2023-04-23T02:59:43.911Z,9.15
2023-04-23T03:02:12.405Z,9.18
2023-04-23T03:04:41.014Z,10.57
2023-04-23T03:07:08.400Z,10.45
2023-04-23T03:09:36.464Z,10.07
2023-04-23T03:12:03.488Z,10.00
2023-04-23T03:14:30.923Z,9.70
2023-04-23T03:16:58.111Z,9.10
2023-04-23T03:19:25.543Z,9.07
2023-04-23T03:21:53.921Z,9.30
2023-04-23T03:24:20.968Z,9.13
2023-04-23T03:26:48.029Z,10.20
2023-04-23T03:29:15.669Z,10.50
2023-04-23T03:31:43.047Z,9.80
2023-04-23T03:34:10.711Z,9.70
2023-04-23T03:36:38.757Z,9.55
2023-04-23T03:39:08.048Z,9.25
2023-04-23T03:41:48.566Z,9.63
2023-04-23T03:44:18.158Z,9.73
2023-04-23T03:46:47.309Z,9.90
2023-04-23T03:49:17.597Z,9.95
2023-04-23T03:51:45.134Z,9.15
2023-04-23T03:54:12.223Z,9.70
2023-04-23T03:56:48.879Z,11.07
2023-04-23T03:59:16.313Z,10.03
2023-04-23T04:01:45.067Z,10.02
2023-04-23T04:04:12.394Z,10.25
2023-04-23T04:06:39.739Z,9.40
2023-04-23T04:09:08.573Z,9.35
2023-04-23T04:11:35.786Z,9.30
2023-04-23T04:14:03.480Z,10.30
2023-04-23T04:16:30.695Z,8.95
2023-04-23T04:18:57.814Z,8.98
2023-04-23T04:21:25.098Z,8.63
2023-04-23T04:23:52.162Z,8.83
2023-04-23T04:26:20.768Z,9.73
2023-04-23T04:28:47.902Z,8.85
2023-04-23T04:31:16.387Z,9.48
2023-04-23T04:33:43.629Z,10.38
2023-04-23T04:36:11.097Z,9.87
2023-04-23T04:38:39.443Z,9.70
2023-04-23T04:41:06.683Z,9.40
2023-04-23T04:43:34.682Z,9.50
2023-04-23T04:46:01.878Z,9.30
2023-04-23T04:48:29.068Z,9.43
2023-04-23T04:50:56.264Z,9.88
2023-04-23T04:53:23.471Z,8.98
2023-04-23T04:55:52.150Z,10.00
2023-04-23T04:58:19.260Z,9.98
2023-04-23T05:00:46.577Z,9.67
2023-04-23T05:03:14.397Z,10.38
2023-04-23T05:05:45.460Z,11.43
2023-04-23T05:08:13.165Z,9.88
2023-04-23T05:10:41.136Z,11.25
2023-04-23T05:13:08.889Z,9.73
2023-04-23T05:15:36.076Z,9.82
2023-04-23T05:18:12.027Z,10.23
2023-04-23T05:20:39.398Z,8.75
2023-04-23T05:23:06.693Z,9.02
2023-04-23T05:25:34.997Z,7.97
2023-04-23T05:28:03.261Z,7.88
2023-04-23T05:30:30.575Z,8.35
2023-04-23T05:32:57.654Z,8.43
2023-04-23T05:35:24.957Z,8.88
2023-04-23T05:37:51.955Z,8.37
2023-04-23T05:40:19.036Z,8.93
2023-04-23T05:42:46.259Z,9.75
2023-04-23T05:45:13.437Z,9.20
2023-04-23T05:47:40.725Z,8.73
2023-04-23T05:50:08.237Z,8.60
2023-04-23T05:52:37.809Z,7.32
2023-04-23T05:55:05.428Z,8.35
2023-04-23T05:57:33.523Z,7.63
2023-04-23T06:00:01.045Z,8.02
2023-04-23T06:02:31.717Z,8.63
2023-04-23T06:04:59.924Z,8.57
2023-04-23T06:07:32.643Z,8.65
2023-04-23T06:10:00.920Z,7.68
2023-04-23T06:12:29.248Z,7.78
2023-04-23T06:14:56.851Z,7.60
2023-04-23T06:17:26.747Z,7.47
2023-04-23T06:19:56.474Z,7.63
2023-04-23T06:22:24.390Z,7.35
2023-04-23T06:25:00.059Z,6.95
2023-04-23T06:27:38.935Z,6.53
2023-04-23T06:30:15.501Z,6.60
2023-04-23T06:32:44.011Z,7.13
2023-04-23T06:35:13.484Z,7.20
2023-04-23T06:37:41.157Z,6.85
2023-04-23T06:40:15.336Z,5.90
2023-04-23T06:42:43.249Z,5.72
2023-04-23T06:45:17.964Z,5.90
2023-04-23T06:47:52.775Z,5.32
2023-04-23T06:50:21.404Z,5.10
2023-04-23T06:52:48.613Z,5.43
2023-04-23T06:55:15.822Z,5.50
2023-04-23T06:57:43.980Z,5.32
2023-04-23T07:00:12.881Z,4.70
2023-04-23T07:02:43.453Z,4.20
2023-04-23T07:05:10.897Z,5.00
2023-04-23T07:07:38.890Z,4.95
2023-04-23T07:10:06.597Z,4.63
2023-04-23T07:12:33.800Z,4.75
2023-04-23T07:15:01.099Z,4.32
2023-04-23T07:17:28.277Z,4.30
2023-04-23T07:19:55.656Z,3.92
2023-04-23T07:22:24.230Z,4.22
2023-04-23T07:24:51.380Z,3.65
2023-04-23T07:27:18.968Z,3.72
2023-04-23T07:29:48.320Z,3.47
2023-04-23T07:32:16.720Z,3.63
2023-04-23T07:34:44.160Z,3.42
2023-04-23T07:37:12.080Z,3.70
2023-04-23T07:39:40.605Z,3.83
2023-04-23T07:42:09.858Z,3.57
2023-04-23T07:44:37.050Z,3.80
2023-04-23T07:47:04.093Z,3.90
2023-04-23T07:49:31.576Z,3.35
2023-04-23T07:51:58.706Z,3.28
2023-04-23T07:54:27.580Z,5.53
2023-04-23T07:56:55.007Z,7.72
2023-04-23T07:59:23.151Z,9.45
2023-04-23T08:01:52.364Z,9.40
2023-04-23T08:04:20.232Z,8.98
2023-04-23T08:06:47.683Z,8.13
2023-04-23T08:09:15.027Z,8.25
2023-04-23T08:11:42.565Z,9.65
2023-04-23T08:14:09.850Z,10.68
2023-04-23T08:16:39.061Z,10.55
2023-04-23T08:19:06.749Z,10.17
2023-04-23T08:21:35.621Z,10.15
2023-04-23T08:24:05.699Z,10.50
2023-04-23T08:26:32.861Z,7.78
2023-04-23T08:29:01.116Z,7.70
2023-04-23T08:31:28.706Z,7.87
2023-04-23T08:33:56.061Z,6.90
2023-04-23T08:36:23.185Z,7.35
2023-04-23T08:38:50.806Z,7.35
2023-04-23T08:41:19.485Z,6.20
2023-04-23T08:44:02.790Z,5.90
2023-04-23T08:46:32.125Z,5.85
2023-04-23T08:48:59.649Z,5.85
2023-04-23T08:51:29.489Z,6.07
2023-04-23T08:53:58.585Z,5.63
2023-04-23T08:56:27.518Z,6.63
2023-04-23T08:58:56.921Z,6.32
2023-04-23T09:01:24.293Z,5.97
2023-04-23T09:03:52.968Z,5.40
2023-04-23T09:06:20.192Z,5.40
2023-04-23T09:08:47.316Z,6.00
2023-04-23T09:11:16.023Z,5.43
2023-04-23T09:13:43.238Z,5.40
2023-04-23T09:16:10.820Z,4.63
2023-04-23T09:18:38.298Z,5.00
2023-04-23T09:21:05.455Z,4.47
2023-04-23T09:23:34.832Z,5.10
2023-04-23T09:26:06.153Z,5.22
2023-04-23T09:28:36.656Z,5.07
2023-04-23T09:31:06.620Z,4.85
2023-04-23T09:33:36.395Z,5.50
2023-04-23T09:36:12.018Z,4.90
2023-04-23T09:38:41.378Z,5.13
2023-04-23T09:41:22.864Z,4.63
2023-04-23T09:43:50.421Z,4.50
2023-04-23T09:46:17.741Z,5.20
2023-04-23T09:48:46.444Z,4.63
2023-04-23T09:51:16.994Z,5.28
2023-04-23T09:53:44.605Z,5.07
2023-04-23T09:56:12.131Z,5.57
2023-04-23T09:58:39.655Z,4.67
2023-04-23T10:01:11.556Z,4.55
2023-04-23T10:03:47.134Z,4.93
2023-04-23T10:06:25.713Z,4.75
2023-04-23T10:09:03.714Z,5.53
2023-04-23T10:11:31.407Z,4.90
2023-04-23T10:13:59.793Z,4.47
2023-04-23T10:16:35.835Z,4.88
2023-04-23T10:19:10.166Z,4.15
2023-04-23T10:21:50.185Z,4.90
2023-04-23T10:24:23.550Z,4.30
2023-04-23T10:26:52.192Z,4.93
2023-04-23T10:29:21.992Z,5.47
2023-04-23T10:31:49.424Z,5.10
2023-04-23T10:34:16.714Z,5.13
2023-04-23T10:36:44.434Z,5.40
2023-04-23T10:39:15.864Z,4.45
2023-04-23T10:41:48.789Z,4.70
2023-04-23T10:44:44.979Z,4.50
2023-04-23T10:47:12.830Z,4.40
2023-04-23T10:49:40.174Z,3.87
2023-04-23T10:52:20.784Z,4.13
2023-04-23T10:54:50.842Z,4.40
2023-04-23T10:57:18.030Z,5.07
2023-04-23T10:59:59.090Z,4.68
2023-04-23T11:02:43.478Z,4.60
2023-04-23T11:05:11.404Z,4.35
2023-04-23T11:07:40.067Z,4.55
2023-04-23T11:10:14.214Z,5.43
2023-04-23T11:12:41.515Z,4.72
2023-04-23T11:15:12.805Z,5.07
2023-04-23T11:17:39.872Z,5.20
2023-04-23T11:20:16.549Z,4.85
2023-04-23T11:22:44.855Z,4.70
2023-04-23T11:25:21.385Z,4.60
2023-04-23T11:27:49.862Z,4.90
2023-04-23T11:30:20.768Z,5.13
2023-04-23T11:32:49.620Z,5.18
2023-04-23T11:35:17.971Z,5.63
2023-04-23T11:37:45.892Z,4.78
2023-04-23T11:40:14.498Z,4.43
2023-04-23T11:42:43.778Z,4.55
2023-04-23T11:45:17.800Z,4.97
2023-04-23T11:47:46.207Z,4.80
2023-04-23T11:50:23.784Z,5.25
2023-04-23T11:52:51.810Z,4.70
2023-04-23T11:55:21.352Z,4.75
2023-04-23T11:57:50.724Z,5.10
2023-04-23T12:00:22.621Z,4.40
2023-04-23T12:03:03.249Z,4.55
2023-04-23T12:05:37.319Z,4.60
2023-04-23T12:08:08.254Z,4.13
2023-04-23T12:10:42.363Z,4.10
2023-04-23T12:13:14.276Z,4.47
2023-04-23T12:15:48.106Z,4.10
2023-04-23T12:18:16.891Z,4.37
2023-04-23T12:20:45.306Z,4.88
2023-04-23T12:23:13.084Z,4.50
2023-04-23T12:25:40.879Z,5.15
2023-04-23T12:28:08.076Z,4.80
2023-04-23T12:30:35.724Z,5.10
2023-04-23T12:33:03.749Z,4.80
2023-04-23T12:35:41.582Z,4.68
2023-04-23T12:38:09.168Z,4.90
2023-04-23T12:40:36.877Z,4.03
2023-04-23T12:43:03.909Z,4.40
2023-04-23T12:45:38.075Z,4.55
2023-04-23T12:48:05.406Z,4.25
2023-04-23T12:50:33.551Z,4.28
2023-04-23T12:53:00.886Z,4.05
2023-04-23T12:55:28.040Z,4.03
2023-04-23T12:57:55.323Z,4.05
2023-04-23T13:00:24.521Z,4.00
2023-04-23T13:02:51.965Z,4.15
2023-04-23T13:05:19.559Z,4.20
2023-04-23T13:07:46.853Z,3.93
2023-04-23T13:10:13.996Z,4.07
2023-04-23T13:12:41.624Z,4.10
2023-04-23T13:15:09.501Z,4.13
2023-04-23T13:17:37.710Z,3.92
2023-04-23T13:20:05.491Z,4.10
2023-04-23T13:22:33.428Z,3.70
2023-04-23T13:25:01.024Z,3.83
2023-04-23T13:27:29.470Z,3.50
2023-04-23T13:29:56.881Z,3.70
2023-04-23T13:32:25.460Z,3.77
2023-04-23T13:34:52.589Z,4.15
2023-04-23T13:37:19.989Z,3.60
2023-04-23T13:39:47.485Z,3.55
2023-04-23T13:42:14.779Z,4.10
2023-04-23T13:44:41.749Z,3.53
2023-04-23T13:47:08.736Z,3.50
2023-04-23T13:49:37.343Z,4.00
2023-04-23T13:52:07.264Z,4.45
2023-04-23T13:54:35.938Z,3.90
2023-04-23T13:57:03.538Z,3.63
2023-04-23T13:59:31.062Z,3.75
2023-04-23T14:01:58.321Z,3.97
2023-04-23T14:04:25.432Z,3.72
2023-04-23T14:06:52.676Z,3.65
2023-04-23T14:09:27.433Z,3.33
2023-04-23T14:11:54.700Z,3.58
2023-04-23T14:14:21.852Z,3.80
2023-04-23T14:16:48.870Z,4.15
2023-04-23T14:19:15.908Z,4.30
2023-04-23T14:21:43.096Z,4.30
2023-04-23T14:24:17.679Z,4.40
2023-04-23T14:26:49.493Z,4.07
2023-04-23T14:29:23.494Z,4.50
2023-04-23T14:31:50.927Z,4.38
2023-04-23T14:34:18.339Z,5.13
2023-04-23T14:36:49.340Z,4.10
2023-04-23T14:39:16.656Z,4.07
2023-04-23T14:41:43.751Z,4.25
2023-04-23T14:44:11.429Z,3.67
2023-04-23T14:46:38.570Z,3.23
2023-04-23T14:49:07.074Z,3.30
2023-04-23T14:51:34.198Z,4.07
2023-04-23T14:54:01.682Z,4.32
2023-04-23T14:56:28.813Z,4.10
2023-04-23T14:58:55.985Z,4.10
2023-04-23T15:01:23.295Z,3.78
2023-04-23T15:03:50.755Z,4.10
2023-04-23T15:06:18.114Z,3.85
2023-04-23T15:08:45.374Z,4.18
2023-04-23T15:11:16.239Z,4.23
2023-04-23T15:13:57.960Z,4.13
2023-04-23T15:16:47.536Z,4.35
2023-04-23T15:19:18.364Z,4.20
2023-04-23T15:21:46.439Z,4.05
2023-04-23T15:24:13.802Z,4.07
2023-04-23T15:26:41.140Z,4.40
2023-04-23T15:29:09.229Z,4.40
2023-04-23T15:31:40.225Z,4.63
2023-04-23T15:34:09.634Z,4.00
2023-04-23T15:36:38.085Z,4.37
2023-04-23T15:39:07.008Z,3.80
2023-04-23T15:41:37.027Z,4.07
2023-04-23T15:44:08.993Z,4.30
2023-04-23T15:46:36.418Z,4.10
2023-04-23T15:49:08.927Z,4.40
2023-04-23T15:51:48.391Z,4.82
2023-04-23T15:54:21.892Z,5.15
2023-04-23T15:56:59.309Z,5.13
2023-04-23T15:59:30.114Z,4.80
2023-04-23T16:02:06.210Z,4.87
2023-04-23T16:04:42.813Z,4.60
2023-04-23T16:10:08.769Z,5.15
2023-04-23T16:12:36.078Z,5.50
2023-04-23T16:17:39.386Z,5.40
2023-04-23T16:20:06.838Z,5.18
2023-04-23T16:22:34.183Z,4.78
2023-04-23T16:25:01.466Z,5.18
2023-04-23T16:27:38.091Z,4.93
2023-04-23T16:30:06.614Z,5.20
2023-04-23T16:32:36.152Z,5.40
2023-04-23T16:35:06.395Z,5.43
2023-04-23T16:37:33.659Z,5.53
2023-04-23T16:40:01.381Z,4.93
2023-04-23T16:42:28.654Z,5.45
2023-04-23T16:44:56.032Z,5.55
2023-04-23T16:47:23.294Z,4.88
2023-04-23T16:49:50.630Z,5.40
2023-04-23T16:52:17.869Z,5.30
2023-04-23T16:54:45.351Z,5.50
2023-04-23T16:57:12.604Z,5.70
2023-04-23T16:59:41.068Z,5.53
2023-04-23T17:02:08.420Z,5.75
2023-04-23T17:04:35.718Z,5.50
2023-04-23T17:07:03.078Z,6.03
2023-04-23T17:09:30.210Z,6.05
2023-04-23T17:11:58.264Z,6.60
2023-04-23T17:14:25.370Z,6.30
2023-04-23T17:16:52.457Z,5.90
2023-04-23T17:19:19.566Z,6.53
2023-04-23T17:21:46.604Z,6.47
2023-04-23T17:24:13.772Z,6.47
2023-04-23T17:26:41.114Z,6.97
2023-04-23T17:29:08.309Z,6.60
2023-04-23T17:31:37.676Z,6.55
2023-04-23T17:34:05.597Z,6.70
2023-04-23T17:36:33.219Z,6.15
2023-04-23T17:39:00.399Z,6.20
2023-04-23T17:41:27.520Z,5.97
2023-04-23T17:43:54.642Z,5.75
2023-04-23T17:46:21.863Z,6.63
2023-04-23T17:48:49.091Z,7.95
2023-04-23T17:51:16.277Z,23.50
2023-04-23T17:53:48.630Z,30.77
2023-04-23T17:56:16.037Z,16.48
2023-04-23T17:58:43.418Z,14.77
2023-04-23T18:01:10.968Z,15.10
2023-04-23T18:03:38.498Z,12.73
2023-04-23T18:06:06.554Z,12.50
2023-04-23T18:08:33.807Z,8.23
2023-04-23T18:11:01.024Z,7.28
2023-04-23T18:13:28.275Z,6.45
2023-04-23T18:15:55.487Z,5.97
2023-04-23T18:18:22.699Z,6.00
2023-04-23T18:20:52.224Z,6.20
2023-04-23T18:23:21.019Z,6.80
2023-04-23T18:25:48.433Z,6.22
2023-04-23T18:28:15.547Z,5.68
2023-04-23T18:30:42.683Z,5.70
2023-04-23T18:33:15.973Z,7.00
2023-04-23T18:35:46.297Z,7.10
2023-04-23T18:38:24.379Z,6.22
2023-04-23T18:40:51.814Z,10.27
2023-04-23T18:43:19.221Z,12.33
2023-04-23T18:45:46.466Z,8.75
2023-04-23T18:48:32.474Z,15.00
2023-04-23T18:51:04.858Z,14.20
2023-04-23T18:53:32.221Z,12.27
2023-04-23T18:55:59.388Z,8.13
2023-04-23T18:58:27.044Z,8.43
2023-04-23T19:00:55.199Z,8.93
2023-04-23T19:03:26.896Z,7.88
2023-04-23T19:05:54.745Z,6.45
2023-04-23T19:08:23.077Z,6.70
2023-04-23T19:10:50.118Z,6.30
2023-04-23T19:13:19.029Z,6.10
2023-04-23T19:15:46.177Z,6.38
2023-04-23T19:18:13.462Z,6.97
2023-04-23T19:20:40.633Z,7.07
2023-04-23T19:23:09.385Z,7.38
2023-04-23T19:25:43.735Z,6.75
2023-04-23T19:28:10.803Z,8.02
2023-04-23T19:30:38.347Z,7.68
2023-04-23T19:33:05.514Z,8.10
2023-04-23T19:35:32.788Z,8.52
2023-04-23T19:38:00.068Z,9.35
2023-04-23T19:40:27.176Z,9.75
2023-04-23T19:42:54.486Z,9.07
2023-04-23T19:45:22.386Z,9.00
2023-04-23T19:47:49.699Z,9.68
2023-04-23T19:50:17.012Z,10.38
2023-04-23T19:52:46.743Z,10.82
2023-04-23T19:55:14.064Z,11.25
2023-04-23T19:57:41.502Z,10.40
2023-04-23T20:00:13.736Z,12.55
2023-04-23T20:02:41.611Z,12.27
2023-04-23T20:05:10.938Z,13.52
2023-04-23T20:07:38.628Z,12.88
2023-04-23T20:10:06.231Z,13.97
2023-04-23T20:12:34.228Z,14.32
2023-04-23T20:15:01.506Z,13.77
2023-04-23T20:17:31.748Z,12.80
2023-04-23T20:20:02.168Z,11.38
2023-04-23T20:22:29.812Z,12.00
2023-04-23T20:25:02.287Z,13.70
2023-04-23T20:27:29.748Z,13.85
2023-04-23T20:30:00.164Z,12.50
2023-04-23T20:32:27.746Z,11.38
2023-04-23T20:34:55.086Z,9.93
2023-04-23T20:37:22.393Z,9.30
2023-04-23T20:39:50.327Z,9.95
2023-04-23T20:42:17.612Z,11.07
2023-04-23T20:44:47.280Z,11.70
2023-04-23T20:47:16.731Z,10.83
2023-04-23T20:49:44.146Z,10.50
2023-04-23T20:52:12.834Z,9.45
2023-04-23T20:54:40.084Z,8.85
2023-04-23T20:57:07.366Z,8.30
2023-04-23T20:59:34.727Z,8.73
2023-04-23T21:02:02.097Z,7.93
2023-04-23T21:04:29.495Z,8.80
2023-04-23T21:06:57.277Z,8.90
2023-04-23T21:09:24.709Z,7.80
2023-04-23T21:11:54.818Z,8.07
2023-04-23T21:14:22.163Z,8.68
2023-04-23T21:16:49.419Z,9.48
2023-04-23T21:19:16.764Z,9.32
2023-04-23T21:21:43.995Z,8.70
2023-04-23T21:24:11.158Z,8.53
2023-04-23T21:26:38.548Z,8.90
2023-04-23T21:29:06.595Z,8.55
2023-04-23T21:31:46.479Z,7.30
2023-04-23T21:34:17.071Z,7.05
2023-04-23T21:36:47.283Z,7.53
2023-04-23T21:39:14.829Z,7.50
2023-04-23T21:41:42.278Z,7.15
2023-04-23T21:44:09.571Z,7.65
2023-04-23T21:46:36.957Z,7.32
2023-04-23T21:49:04.318Z,7.00
2023-04-23T21:51:37.261Z,7.10
2023-04-23T21:54:06.212Z,7.25
2023-04-23T21:56:34.206Z,6.40
2023-04-23T21:59:02.566Z,7.20
2023-04-23T22:01:30.233Z,6.40
2023-04-23T22:03:58.490Z,6.22
2023-04-23T22:06:26.029Z,6.78
2023-04-23T22:08:54.971Z,6.05
2023-04-23T22:11:22.959Z,6.05
2023-04-23T22:13:50.270Z,6.17
2023-04-23T22:16:27.592Z,5.60
2023-04-23T22:18:57.083Z,6.22
2023-04-23T22:21:24.374Z,5.80
2023-04-23T22:23:51.729Z,5.80
2023-04-23T22:26:20.695Z,5.90
2023-04-23T22:28:50.008Z,6.60
2023-04-23T22:31:19.704Z,6.88
2023-04-23T22:33:51.149Z,6.80
2023-04-23T22:36:22.466Z,6.53
2023-04-23T22:38:55.369Z,6.50
2023-04-23T22:41:25.101Z,6.50
2023-04-23T22:44:01.055Z,7.20
2023-04-23T22:46:30.924Z,6.43
2023-04-23T22:49:01.589Z,7.40
2023-04-23T22:51:30.616Z,7.70
2023-04-23T22:53:57.912Z,7.53
2023-04-23T22:56:25.187Z,8.02
2023-04-23T22:58:52.710Z,7.65
2023-04-23T23:01:20.675Z,8.32
2023-04-23T23:03:48.258Z,7.83
2023-04-23T23:06:15.609Z,7.97
2023-04-23T23:08:42.844Z,8.00
2023-04-23T23:11:10.166Z,7.60
2023-04-23T23:13:37.664Z,8.27
2023-04-23T23:16:08.206Z,8.23
2023-04-23T23:18:35.819Z,8.23
2023-04-23T23:21:03.335Z,8.07
2023-04-23T23:23:30.921Z,8.07
2023-04-23T23:25:59.955Z,7.65
2023-04-23T23:28:27.780Z,9.30
2023-04-23T23:30:55.870Z,9.20
2023-04-23T23:33:23.379Z,8.52
2023-04-23T23:35:51.375Z,8.27
2023-04-23T23:38:18.596Z,7.70
2023-04-23T23:40:46.097Z,7.90
2023-04-23T23:43:13.436Z,7.30
2023-04-23T23:45:40.867Z,6.93
2023-04-23T23:48:08.110Z,6.70
2023-04-23T23:50:35.401Z,6.28
2023-04-23T23:53:02.716Z,6.07
2023-04-23T23:55:30.030Z,5.28
2023-04-23T23:57:57.297Z,5.72
